sensor_id;sensor_type;location;lat;lon;timestamp;temperature;humidity
44775;DHT22;31340;51.402;0.016;2023-12-07T00:00:30;7.10;99.90
44775;DHT22;31340;51.402;0.016;2023-12-07T00:02:58;7.10;99.90
44775;DHT22;31340;51.402;0.016;2023-12-07T00:05:27;7.10;99.90
44775;DHT22;31340;51.402;0.016;2023-12-07T00:07:55;7.10;99.90
44775;DHT22;31340;51.402;0.016;2023-12-07T00:10:23;7.20;99.90
44775;DHT22;31340;51.402;0.016;2023-12-07T00:12:51;7.20;99.90
44775;DHT22;31340;51.402;0.016;2023-12-07T00:15:19;7.20;99.90
44775;DHT22;31340;51.402;0.016;2023-12-07T00:17:46;7.20;99.90
44775;DHT22;31340;51.402;0.016;2023-12-07T00:20:15;7.20;99.90
44775;DHT22;31340;51.402;0.016;2023-12-07T00:22:43;7.20;99.90
44775;DHT22;31340;51.402;0.016;2023-12-07T00:25:10;7.30;99.90
44775;DHT22;31340;51.402;0.016;2023-12-07T00:27:38;7.30;99.90
44775;DHT22;31340;51.402;0.016;2023-12-07T00:30:06;7.30;99.90
44775;DHT22;31340;51.402;0.016;2023-12-07T00:32:34;7.30;99.90
44775;DHT22;31340;51.402;0.016;2023-12-07T00:35:02;7.40;99.90
44775;DHT22;31340;51.402;0.016;2023-12-07T00:37:30;7.40;99.90
44775;DHT22;31340;51.402;0.016;2023-12-07T00:39:58;7.40;99.90
44775;DHT22;31340;51.402;0.016;2023-12-07T00:42:26;7.40;99.90
44775;DHT22;31340;51.402;0.016;2023-12-07T00:44:54;7.40;99.90
44775;DHT22;31340;51.402;0.016;2023-12-07T00:47:22;7.40;99.90
44775;DHT22;31340;51.402;0.016;2023-12-07T00:49:50;7.50;99.90
44775;DHT22;31340;51.402;0.016;2023-12-07T00:52:18;7.50;99.90
44775;DHT22;31340;51.402;0.016;2023-12-07T00:54:45;7.50;99.90
44775;DHT22;31340;51.402;0.016;2023-12-07T00:57:13;7.50;99.90
44775;DHT22;31340;51.402;0.016;2023-12-07T00:59:41;7.50;99.90
44775;DHT22;31340;51.402;0.016;2023-12-07T01:02:10;7.50;99.90
44775;DHT22;31340;51.402;0.016;2023-12-07T01:04:37;7.50;99.90
44775;DHT22;31340;51.402;0.016;2023-12-07T01:07:05;7.60;99.90
44775;DHT22;31340;51.402;0.016;2023-12-07T01:09:33;7.60;99.90
44775;DHT22;31340;51.402;0.016;2023-12-07T01:12:01;7.60;99.90
44775;DHT22;31340;51.402;0.016;2023-12-07T01:14:28;7.60;99.90
44775;DHT22;31340;51.402;0.016;2023-12-07T01:16:56;7.60;99.90
44775;DHT22;31340;51.402;0.016;2023-12-07T01:19:24;7.60;99.90
44775;DHT22;31340;51.402;0.016;2023-12-07T01:21:52;7.60;99.90
44775;DHT22;31340;51.402;0.016;2023-12-07T01:24:20;7.60;99.90
44775;DHT22;31340;51.402;0.016;2023-12-07T01:26:48;7.70;99.90
44775;DHT22;31340;51.402;0.016;2023-12-07T01:29:16;7.60;99.90
44775;DHT22;31340;51.402;0.016;2023-12-07T01:31:45;7.60;99.90
44775;DHT22;31340;51.402;0.016;2023-12-07T01:34:13;7.70;99.90
44775;DHT22;31340;51.402;0.016;2023-12-07T01:36:42;7.70;99.90
44775;DHT22;31340;51.402;0.016;2023-12-07T01:39:10;7.70;99.90
44775;DHT22;31340;51.402;0.016;2023-12-07T01:41:40;7.70;99.90
44775;DHT22;31340;51.402;0.016;2023-12-07T01:44:08;7.70;99.90
44775;DHT22;31340;51.402;0.016;2023-12-07T01:46:36;7.70;99.90
44775;DHT22;31340;51.402;0.016;2023-12-07T01:49:04;7.70;99.90
44775;DHT22;31340;51.402;0.016;2023-12-07T01:51:33;7.70;99.90
44775;DHT22;31340;51.402;0.016;2023-12-07T01:54:01;7.70;99.90
44775;DHT22;31340;51.402;0.016;2023-12-07T01:56:30;7.70;99.90
44775;DHT22;31340;51.402;0.016;2023-12-07T01:58:58;7.70;99.90
44775;DHT22;31340;51.402;0.016;2023-12-07T02:01:26;7.70;99.90
44775;DHT22;31340;51.402;0.016;2023-12-07T02:03:54;7.70;99.90
44775;DHT22;31340;51.402;0.016;2023-12-07T02:06:22;7.70;99.90
44775;DHT22;31340;51.402;0.016;2023-12-07T02:08:50;7.70;99.90
44775;DHT22;31340;51.402;0.016;2023-12-07T02:11:18;7.70;99.90
44775;DHT22;31340;51.402;0.016;2023-12-07T02:13:46;7.70;99.90
44775;DHT22;31340;51.402;0.016;2023-12-07T02:21:47;7.70;99.90
44775;DHT22;31340;51.402;0.016;2023-12-07T02:24:21;7.70;99.90
44775;DHT22;31340;51.402;0.016;2023-12-07T02:26:50;7.70;99.90
44775;DHT22;31340;51.402;0.016;2023-12-07T02:29:19;7.70;99.90
44775;DHT22;31340;51.402;0.016;2023-12-07T02:31:47;7.70;99.90
44775;DHT22;31340;51.402;0.016;2023-12-07T02:34:15;7.70;99.90
44775;DHT22;31340;51.402;0.016;2023-12-07T02:36:45;7.70;99.90
44775;DHT22;31340;51.402;0.016;2023-12-07T02:39:14;7.70;99.90
44775;DHT22;31340;51.402;0.016;2023-12-07T02:41:43;7.70;99.90
44775;DHT22;31340;51.402;0.016;2023-12-07T02:44:12;7.60;99.90
44775;DHT22;31340;51.402;0.016;2023-12-07T02:46:40;7.60;99.90
44775;DHT22;31340;51.402;0.016;2023-12-07T02:49:08;7.60;99.90
44775;DHT22;31340;51.402;0.016;2023-12-07T02:51:36;7.70;99.90
44775;DHT22;31340;51.402;0.016;2023-12-07T02:54:04;7.70;99.90
44775;DHT22;31340;51.402;0.016;2023-12-07T02:56:32;7.70;99.90
44775;DHT22;31340;51.402;0.016;2023-12-07T02:59:00;7.70;99.90
44775;DHT22;31340;51.402;0.016;2023-12-07T03:01:27;7.70;99.90
44775;DHT22;31340;51.402;0.016;2023-12-07T03:03:55;7.70;99.90
44775;DHT22;31340;51.402;0.016;2023-12-07T03:06:24;7.70;99.90
44775;DHT22;31340;51.402;0.016;2023-12-07T03:08:52;7.70;99.90
44775;DHT22;31340;51.402;0.016;2023-12-07T03:11:21;7.80;99.90
44775;DHT22;31340;51.402;0.016;2023-12-07T03:13:49;7.80;99.90
44775;DHT22;31340;51.402;0.016;2023-12-07T03:16:17;7.80;99.90
44775;DHT22;31340;51.402;0.016;2023-12-07T03:18:44;7.70;99.90
44775;DHT22;31340;51.402;0.016;2023-12-07T03:21:12;7.80;99.90
44775;DHT22;31340;51.402;0.016;2023-12-07T03:23:40;7.80;99.90
44775;DHT22;31340;51.402;0.016;2023-12-07T03:26:09;7.80;99.90
44775;DHT22;31340;51.402;0.016;2023-12-07T03:28:36;7.80;99.90
44775;DHT22;31340;51.402;0.016;2023-12-07T03:31:05;7.80;99.90
44775;DHT22;31340;51.402;0.016;2023-12-07T03:33:33;7.80;99.90
44775;DHT22;31340;51.402;0.016;2023-12-07T03:36:04;7.80;99.90
44775;DHT22;31340;51.402;0.016;2023-12-07T03:38:32;7.80;99.90
44775;DHT22;31340;51.402;0.016;2023-12-07T03:41:00;7.80;99.90
44775;DHT22;31340;51.402;0.016;2023-12-07T03:43:27;7.90;99.90
44775;DHT22;31340;51.402;0.016;2023-12-07T03:45:55;7.90;99.90
44775;DHT22;31340;51.402;0.016;2023-12-07T03:48:23;7.80;99.90
44775;DHT22;31340;51.402;0.016;2023-12-07T03:50:52;7.90;99.90
44775;DHT22;31340;51.402;0.016;2023-12-07T03:53:21;7.90;99.90
44775;DHT22;31340;51.402;0.016;2023-12-07T03:55:49;7.90;99.90
44775;DHT22;31340;51.402;0.016;2023-12-07T03:58:17;8.00;99.90
44775;DHT22;31340;51.402;0.016;2023-12-07T04:00:45;8.00;99.90
44775;DHT22;31340;51.402;0.016;2023-12-07T04:03:13;8.00;99.90
44775;DHT22;31340;51.402;0.016;2023-12-07T04:05:41;8.00;99.90
44775;DHT22;31340;51.402;0.016;2023-12-07T04:08:09;8.00;99.90
44775;DHT22;31340;51.402;0.016;2023-12-07T04:10:36;8.00;99.90
44775;DHT22;31340;51.402;0.016;2023-12-07T04:13:04;8.00;99.90
44775;DHT22;31340;51.402;0.016;2023-12-07T04:15:33;8.00;99.90
44775;DHT22;31340;51.402;0.016;2023-12-07T04:18:01;8.00;99.90
44775;DHT22;31340;51.402;0.016;2023-12-07T04:20:30;8.00;99.90
44775;DHT22;31340;51.402;0.016;2023-12-07T04:22:58;8.00;99.90
44775;DHT22;31340;51.402;0.016;2023-12-07T04:25:26;8.00;99.90
44775;DHT22;31340;51.402;0.016;2023-12-07T04:27:53;8.00;99.90
44775;DHT22;31340;51.402;0.016;2023-12-07T04:30:21;8.00;99.90
44775;DHT22;31340;51.402;0.016;2023-12-07T04:32:49;8.00;99.90
44775;DHT22;31340;51.402;0.016;2023-12-07T04:35:18;8.00;99.90
44775;DHT22;31340;51.402;0.016;2023-12-07T04:37:45;8.00;99.90
44775;DHT22;31340;51.402;0.016;2023-12-07T04:40:13;8.00;99.90
44775;DHT22;31340;51.402;0.016;2023-12-07T04:42:42;8.00;99.90
44775;DHT22;31340;51.402;0.016;2023-12-07T04:45:10;8.00;99.90
44775;DHT22;31340;51.402;0.016;2023-12-07T04:47:38;8.00;99.90
44775;DHT22;31340;51.402;0.016;2023-12-07T04:50:06;8.00;99.90
44775;DHT22;31340;51.402;0.016;2023-12-07T04:52:34;8.00;99.90
44775;DHT22;31340;51.402;0.016;2023-12-07T04:55:03;8.00;99.90
44775;DHT22;31340;51.402;0.016;2023-12-07T04:57:34;8.00;99.90
44775;DHT22;31340;51.402;0.016;2023-12-07T05:00:04;8.00;99.90
44775;DHT22;31340;51.402;0.016;2023-12-07T05:02:37;8.00;99.90
44775;DHT22;31340;51.402;0.016;2023-12-07T05:05:05;8.00;99.90
44775;DHT22;31340;51.402;0.016;2023-12-07T05:07:33;8.00;99.90
44775;DHT22;31340;51.402;0.016;2023-12-07T05:10:01;8.00;99.90
44775;DHT22;31340;51.402;0.016;2023-12-07T05:12:30;8.00;99.90
44775;DHT22;31340;51.402;0.016;2023-12-07T05:14:58;8.00;99.90
44775;DHT22;31340;51.402;0.016;2023-12-07T05:17:26;8.00;99.90
44775;DHT22;31340;51.402;0.016;2023-12-07T05:19:54;8.10;99.90
44775;DHT22;31340;51.402;0.016;2023-12-07T05:22:22;8.10;99.90
44775;DHT22;31340;51.402;0.016;2023-12-07T05:24:51;8.10;99.90
44775;DHT22;31340;51.402;0.016;2023-12-07T05:27:19;8.10;99.90
44775;DHT22;31340;51.402;0.016;2023-12-07T05:29:46;8.10;99.90
44775;DHT22;31340;51.402;0.016;2023-12-07T05:32:14;8.10;99.90
44775;DHT22;31340;51.402;0.016;2023-12-07T05:34:42;8.10;99.90
44775;DHT22;31340;51.402;0.016;2023-12-07T05:37:10;8.10;99.90
44775;DHT22;31340;51.402;0.016;2023-12-07T05:39:38;8.10;99.90
44775;DHT22;31340;51.402;0.016;2023-12-07T05:42:05;8.10;99.90
44775;DHT22;31340;51.402;0.016;2023-12-07T05:44:33;8.10;99.90
44775;DHT22;31340;51.402;0.016;2023-12-07T05:47:02;8.10;99.90
44775;DHT22;31340;51.402;0.016;2023-12-07T05:49:30;8.20;99.90
44775;DHT22;31340;51.402;0.016;2023-12-07T05:51:58;8.20;99.90
44775;DHT22;31340;51.402;0.016;2023-12-07T05:54:26;8.10;99.90
44775;DHT22;31340;51.402;0.016;2023-12-07T05:56:54;8.20;99.90
44775;DHT22;31340;51.402;0.016;2023-12-07T05:59:21;8.20;99.90
44775;DHT22;31340;51.402;0.016;2023-12-07T06:01:51;8.10;99.90
44775;DHT22;31340;51.402;0.016;2023-12-07T06:04:20;8.20;99.90
44775;DHT22;31340;51.402;0.016;2023-12-07T06:06:48;8.10;99.90
44775;DHT22;31340;51.402;0.016;2023-12-07T06:09:17;8.10;99.90
44775;DHT22;31340;51.402;0.016;2023-12-07T06:11:45;8.10;99.90
44775;DHT22;31340;51.402;0.016;2023-12-07T06:14:13;8.10;99.90
44775;DHT22;31340;51.402;0.016;2023-12-07T06:16:41;8.20;99.90
44775;DHT22;31340;51.402;0.016;2023-12-07T06:19:09;8.20;99.90
44775;DHT22;31340;51.402;0.016;2023-12-07T06:21:36;8.20;99.90
44775;DHT22;31340;51.402;0.016;2023-12-07T06:24:04;8.20;99.90
44775;DHT22;31340;51.402;0.016;2023-12-07T06:26:32;8.20;99.90
44775;DHT22;31340;51.402;0.016;2023-12-07T06:29:00;8.20;99.90
44775;DHT22;31340;51.402;0.016;2023-12-07T06:31:28;8.20;99.90
44775;DHT22;31340;51.402;0.016;2023-12-07T06:33:55;8.20;99.90
44775;DHT22;31340;51.402;0.016;2023-12-07T06:36:24;8.20;99.90
44775;DHT22;31340;51.402;0.016;2023-12-07T06:38:53;8.20;99.90
44775;DHT22;31340;51.402;0.016;2023-12-07T06:41:25;8.20;99.90
44775;DHT22;31340;51.402;0.016;2023-12-07T06:43:53;8.20;99.90
44775;DHT22;31340;51.402;0.016;2023-12-07T06:46:23;8.20;99.90
44775;DHT22;31340;51.402;0.016;2023-12-07T06:48:51;8.20;99.90
44775;DHT22;31340;51.402;0.016;2023-12-07T06:51:19;8.20;99.90
44775;DHT22;31340;51.402;0.016;2023-12-07T06:53:46;8.20;99.90
44775;DHT22;31340;51.402;0.016;2023-12-07T06:56:14;8.20;99.90
44775;DHT22;31340;51.402;0.016;2023-12-07T06:58:42;8.20;99.90
44775;DHT22;31340;51.402;0.016;2023-12-07T07:01:10;8.20;99.90
44775;DHT22;31340;51.402;0.016;2023-12-07T07:03:38;8.20;99.90
44775;DHT22;31340;51.402;0.016;2023-12-07T07:06:05;8.20;99.90
44775;DHT22;31340;51.402;0.016;2023-12-07T07:08:33;8.20;99.90
44775;DHT22;31340;51.402;0.016;2023-12-07T07:11:01;8.20;99.90
44775;DHT22;31340;51.402;0.016;2023-12-07T07:13:28;8.20;99.90
44775;DHT22;31340;51.402;0.016;2023-12-07T07:16:03;8.20;99.90
44775;DHT22;31340;51.402;0.016;2023-12-07T07:18:34;8.20;99.90
44775;DHT22;31340;51.402;0.016;2023-12-07T07:21:03;8.20;99.90
44775;DHT22;31340;51.402;0.016;2023-12-07T07:23:35;8.10;99.90
44775;DHT22;31340;51.402;0.016;2023-12-07T07:26:03;8.20;99.90
44775;DHT22;31340;51.402;0.016;2023-12-07T07:28:30;8.20;99.90
44775;DHT22;31340;51.402;0.016;2023-12-07T07:30:58;8.20;99.90
44775;DHT22;31340;51.402;0.016;2023-12-07T07:33:26;8.20;99.90
44775;DHT22;31340;51.402;0.016;2023-12-07T07:35:54;8.20;99.90
44775;DHT22;31340;51.402;0.016;2023-12-07T07:38:24;8.20;99.90
44775;DHT22;31340;51.402;0.016;2023-12-07T07:40:52;8.20;99.90
44775;DHT22;31340;51.402;0.016;2023-12-07T07:43:20;8.20;99.90
44775;DHT22;31340;51.402;0.016;2023-12-07T07:45:48;8.20;99.90
44775;DHT22;31340;51.402;0.016;2023-12-07T07:48:16;8.20;99.90
44775;DHT22;31340;51.402;0.016;2023-12-07T07:50:44;8.20;99.90
44775;DHT22;31340;51.402;0.016;2023-12-07T07:53:12;8.20;99.90
44775;DHT22;31340;51.402;0.016;2023-12-07T07:55:40;8.20;99.90
44775;DHT22;31340;51.402;0.016;2023-12-07T07:58:08;8.30;99.90
44775;DHT22;31340;51.402;0.016;2023-12-07T08:00:36;8.30;99.90
44775;DHT22;31340;51.402;0.016;2023-12-07T08:03:04;8.20;99.90
44775;DHT22;31340;51.402;0.016;2023-12-07T08:05:32;8.20;99.90
44775;DHT22;31340;51.402;0.016;2023-12-07T08:08:01;8.20;99.90
44775;DHT22;31340;51.402;0.016;2023-12-07T08:10:28;8.20;99.90
44775;DHT22;31340;51.402;0.016;2023-12-07T08:12:56;8.20;99.90
44775;DHT22;31340;51.402;0.016;2023-12-07T08:15:24;8.30;99.90
44775;DHT22;31340;51.402;0.016;2023-12-07T08:17:52;8.30;99.90
44775;DHT22;31340;51.402;0.016;2023-12-07T08:20:20;8.30;99.90
44775;DHT22;31340;51.402;0.016;2023-12-07T08:22:47;8.30;99.90
44775;DHT22;31340;51.402;0.016;2023-12-07T08:25:15;8.30;99.90
44775;DHT22;31340;51.402;0.016;2023-12-07T08:27:44;8.30;99.90
44775;DHT22;31340;51.402;0.016;2023-12-07T08:30:13;8.30;99.90
44775;DHT22;31340;51.402;0.016;2023-12-07T08:32:41;8.30;99.90
44775;DHT22;31340;51.402;0.016;2023-12-07T08:35:09;8.30;99.90
44775;DHT22;31340;51.402;0.016;2023-12-07T08:37:37;8.30;99.90
44775;DHT22;31340;51.402;0.016;2023-12-07T08:40:07;8.30;99.90
44775;DHT22;31340;51.402;0.016;2023-12-07T08:42:35;8.30;99.90
44775;DHT22;31340;51.402;0.016;2023-12-07T08:45:03;8.30;99.90
44775;DHT22;31340;51.402;0.016;2023-12-07T08:47:31;8.30;99.90
44775;DHT22;31340;51.402;0.016;2023-12-07T08:49:59;8.40;99.90
44775;DHT22;31340;51.402;0.016;2023-12-07T08:52:27;8.40;99.90
44775;DHT22;31340;51.402;0.016;2023-12-07T08:55:11;8.40;99.90
44775;DHT22;31340;51.402;0.016;2023-12-07T08:57:39;8.40;99.90
44775;DHT22;31340;51.402;0.016;2023-12-07T09:00:07;8.40;99.90
44775;DHT22;31340;51.402;0.016;2023-12-07T09:02:34;8.40;99.90
44775;DHT22;31340;51.402;0.016;2023-12-07T09:05:14;8.40;99.90
44775;DHT22;31340;51.402;0.016;2023-12-07T09:07:42;8.40;99.90
44775;DHT22;31340;51.402;0.016;2023-12-07T09:10:10;8.50;99.90
44775;DHT22;31340;51.402;0.016;2023-12-07T09:12:38;8.50;99.90
44775;DHT22;31340;51.402;0.016;2023-12-07T09:15:07;8.50;99.90
44775;DHT22;31340;51.402;0.016;2023-12-07T09:17:39;8.60;99.90
44775;DHT22;31340;51.402;0.016;2023-12-07T09:20:09;8.50;99.90
44775;DHT22;31340;51.402;0.016;2023-12-07T09:22:45;8.50;99.90
44775;DHT22;31340;51.402;0.016;2023-12-07T09:25:15;8.60;99.90
44775;DHT22;31340;51.402;0.016;2023-12-07T09:27:43;8.60;99.90
44775;DHT22;31340;51.402;0.016;2023-12-07T09:30:11;8.60;99.90
44775;DHT22;31340;51.402;0.016;2023-12-07T09:32:41;8.60;99.90
44775;DHT22;31340;51.402;0.016;2023-12-07T09:35:12;8.60;99.90
44775;DHT22;31340;51.402;0.016;2023-12-07T09:37:49;8.70;99.90
44775;DHT22;31340;51.402;0.016;2023-12-07T09:40:21;8.70;99.90
44775;DHT22;31340;51.402;0.016;2023-12-07T09:42:50;8.70;99.90
44775;DHT22;31340;51.402;0.016;2023-12-07T09:45:19;8.70;99.90
44775;DHT22;31340;51.402;0.016;2023-12-07T09:47:56;8.70;99.90
44775;DHT22;31340;51.402;0.016;2023-12-07T09:50:26;8.80;99.90
44775;DHT22;31340;51.402;0.016;2023-12-07T09:52:57;8.80;99.90
44775;DHT22;31340;51.402;0.016;2023-12-07T09:55:36;8.80;99.90
44775;DHT22;31340;51.402;0.016;2023-12-07T09:58:06;8.80;99.90
44775;DHT22;31340;51.402;0.016;2023-12-07T10:00:36;8.80;99.90
44775;DHT22;31340;51.402;0.016;2023-12-07T10:03:06;8.90;99.90
44775;DHT22;31340;51.402;0.016;2023-12-07T10:05:57;8.90;99.90
44775;DHT22;31340;51.402;0.016;2023-12-07T10:08:29;8.90;99.90
44775;DHT22;31340;51.402;0.016;2023-12-07T10:11:06;8.90;99.90
44775;DHT22;31340;51.402;0.016;2023-12-07T10:13:35;8.90;99.90
44775;DHT22;31340;51.402;0.016;2023-12-07T10:16:11;9.00;99.90
44775;DHT22;31340;51.402;0.016;2023-12-07T10:18:40;9.00;99.90
44775;DHT22;31340;51.402;0.016;2023-12-07T10:21:12;9.00;99.90
44775;DHT22;31340;51.402;0.016;2023-12-07T10:23:42;9.00;99.90
44775;DHT22;31340;51.402;0.016;2023-12-07T10:26:12;9.10;99.90
44775;DHT22;31340;51.402;0.016;2023-12-07T10:28:40;9.10;99.90
44775;DHT22;31340;51.402;0.016;2023-12-07T10:31:09;9.10;99.90
44775;DHT22;31340;51.402;0.016;2023-12-07T10:33:37;9.10;99.90
44775;DHT22;31340;51.402;0.016;2023-12-07T10:36:05;9.10;99.90
44775;DHT22;31340;51.402;0.016;2023-12-07T10:38:34;9.10;99.90
44775;DHT22;31340;51.402;0.016;2023-12-07T10:41:05;9.20;99.90
44775;DHT22;31340;51.402;0.016;2023-12-07T10:43:37;9.20;99.90
44775;DHT22;31340;51.402;0.016;2023-12-07T10:46:06;9.20;99.90
44775;DHT22;31340;51.402;0.016;2023-12-07T10:48:36;9.20;99.90
44775;DHT22;31340;51.402;0.016;2023-12-07T10:51:07;9.20;99.90
44775;DHT22;31340;51.402;0.016;2023-12-07T10:53:41;9.20;99.90
44775;DHT22;31340;51.402;0.016;2023-12-07T10:56:18;9.20;99.90
44775;DHT22;31340;51.402;0.016;2023-12-07T10:58:49;9.30;99.90
44775;DHT22;31340;51.402;0.016;2023-12-07T11:01:19;9.30;99.90
44775;DHT22;31340;51.402;0.016;2023-12-07T11:03:49;9.30;99.90
44775;DHT22;31340;51.402;0.016;2023-12-07T11:06:18;9.30;99.90
44775;DHT22;31340;51.402;0.016;2023-12-07T11:08:57;9.30;99.90
44775;DHT22;31340;51.402;0.016;2023-12-07T11:14:02;9.40;99.90
44775;DHT22;31340;51.402;0.016;2023-12-07T11:16:40;9.40;99.90
44775;DHT22;31340;51.402;0.016;2023-12-07T11:22:09;9.50;99.90
44775;DHT22;31340;51.402;0.016;2023-12-07T11:24:38;9.50;99.90
44775;DHT22;31340;51.402;0.016;2023-12-07T11:27:05;9.50;99.90
44775;DHT22;31340;51.402;0.016;2023-12-07T11:29:35;9.50;99.90
44775;DHT22;31340;51.402;0.016;2023-12-07T11:32:04;9.50;99.90
44775;DHT22;31340;51.402;0.016;2023-12-07T11:34:43;9.50;99.90
44775;DHT22;31340;51.402;0.016;2023-12-07T11:37:15;9.50;99.90
44775;DHT22;31340;51.402;0.016;2023-12-07T11:39:44;9.50;99.90
44775;DHT22;31340;51.402;0.016;2023-12-07T11:42:19;9.60;99.90
44775;DHT22;31340;51.402;0.016;2023-12-07T11:44:50;9.60;99.90
44775;DHT22;31340;51.402;0.016;2023-12-07T11:47:20;9.60;99.90
44775;DHT22;31340;51.402;0.016;2023-12-07T11:49:48;9.60;99.90
44775;DHT22;31340;51.402;0.016;2023-12-07T11:52:19;9.60;99.90
44775;DHT22;31340;51.402;0.016;2023-12-07T11:54:49;9.60;99.90
44775;DHT22;31340;51.402;0.016;2023-12-07T11:57:17;9.60;99.90
44775;DHT22;31340;51.402;0.016;2023-12-07T11:59:46;9.60;99.90
44775;DHT22;31340;51.402;0.016;2023-12-07T12:02:16;9.70;99.90
44775;DHT22;31340;51.402;0.016;2023-12-07T12:04:45;9.70;99.90
44775;DHT22;31340;51.402;0.016;2023-12-07T12:07:13;9.70;99.90
44775;DHT22;31340;51.402;0.016;2023-12-07T12:09:41;9.70;99.90
44775;DHT22;31340;51.402;0.016;2023-12-07T12:12:09;9.70;99.90
44775;DHT22;31340;51.402;0.016;2023-12-07T12:14:36;9.70;99.90
44775;DHT22;31340;51.402;0.016;2023-12-07T12:17:04;9.70;99.90
44775;DHT22;31340;51.402;0.016;2023-12-07T12:19:32;9.70;99.90
44775;DHT22;31340;51.402;0.016;2023-12-07T12:22:03;9.70;99.90
44775;DHT22;31340;51.402;0.016;2023-12-07T12:24:35;9.80;99.90
44775;DHT22;31340;51.402;0.016;2023-12-07T12:27:05;9.80;99.90
44775;DHT22;31340;51.402;0.016;2023-12-07T12:29:34;9.70;99.90
44775;DHT22;31340;51.402;0.016;2023-12-07T12:32:03;9.70;99.90
44775;DHT22;31340;51.402;0.016;2023-12-07T12:34:34;9.70;99.90
44775;DHT22;31340;51.402;0.016;2023-12-07T12:37:03;9.80;99.90
44775;DHT22;31340;51.402;0.016;2023-12-07T12:39:33;9.80;99.90
44775;DHT22;31340;51.402;0.016;2023-12-07T12:42:02;9.80;99.90
44775;DHT22;31340;51.402;0.016;2023-12-07T12:44:31;9.70;99.90
44775;DHT22;31340;51.402;0.016;2023-12-07T12:47:06;9.70;99.90
44775;DHT22;31340;51.402;0.016;2023-12-07T12:49:38;9.70;99.90
44775;DHT22;31340;51.402;0.016;2023-12-07T12:52:15;9.70;99.90
44775;DHT22;31340;51.402;0.016;2023-12-07T12:54:46;9.80;99.90
44775;DHT22;31340;51.402;0.016;2023-12-07T12:57:14;9.70;99.90
44775;DHT22;31340;51.402;0.016;2023-12-07T12:59:42;9.70;99.90
44775;DHT22;31340;51.402;0.016;2023-12-07T13:02:10;9.70;99.90
44775;DHT22;31340;51.402;0.016;2023-12-07T13:04:38;9.70;99.90
44775;DHT22;31340;51.402;0.016;2023-12-07T13:07:09;9.70;99.90
44775;DHT22;31340;51.402;0.016;2023-12-07T13:09:37;9.70;99.90
44775;DHT22;31340;51.402;0.016;2023-12-07T13:12:05;9.70;99.90
44775;DHT22;31340;51.402;0.016;2023-12-07T13:14:33;9.70;99.90
44775;DHT22;31340;51.402;0.016;2023-12-07T13:17:06;9.70;99.90
44775;DHT22;31340;51.402;0.016;2023-12-07T13:19:37;9.60;99.90
44775;DHT22;31340;51.402;0.016;2023-12-07T13:22:05;9.60;99.90
44775;DHT22;31340;51.402;0.016;2023-12-07T13:24:34;9.60;99.90
44775;DHT22;31340;51.402;0.016;2023-12-07T13:27:03;9.70;99.90
44775;DHT22;31340;51.402;0.016;2023-12-07T13:29:30;9.60;99.90
44775;DHT22;31340;51.402;0.016;2023-12-07T13:32:06;9.70;99.90
44775;DHT22;31340;51.402;0.016;2023-12-07T13:34:33;9.60;99.90
44775;DHT22;31340;51.402;0.016;2023-12-07T13:37:03;9.60;99.90
44775;DHT22;31340;51.402;0.016;2023-12-07T13:39:30;9.60;99.90
44775;DHT22;31340;51.402;0.016;2023-12-07T13:41:59;9.60;99.90
44775;DHT22;31340;51.402;0.016;2023-12-07T13:44:31;9.60;99.90
44775;DHT22;31340;51.402;0.016;2023-12-07T13:47:00;9.60;99.90
44775;DHT22;31340;51.402;0.016;2023-12-07T13:49:28;9.60;99.90
44775;DHT22;31340;51.402;0.016;2023-12-07T13:52:04;9.60;99.90
44775;DHT22;31340;51.402;0.016;2023-12-07T13:54:39;9.60;99.90
44775;DHT22;31340;51.402;0.016;2023-12-07T13:57:21;9.60;99.90
44775;DHT22;31340;51.402;0.016;2023-12-07T13:59:53;9.50;99.90
44775;DHT22;31340;51.402;0.016;2023-12-07T14:02:22;9.50;99.90
44775;DHT22;31340;51.402;0.016;2023-12-07T14:04:50;9.40;99.90
44775;DHT22;31340;51.402;0.016;2023-12-07T14:07:19;9.40;99.90
44775;DHT22;31340;51.402;0.016;2023-12-07T14:09:50;9.40;99.90
44775;DHT22;31340;51.402;0.016;2023-12-07T14:12:27;9.40;99.90
44775;DHT22;31340;51.402;0.016;2023-12-07T14:14:57;9.40;99.90
44775;DHT22;31340;51.402;0.016;2023-12-07T14:17:25;9.30;99.90
44775;DHT22;31340;51.402;0.016;2023-12-07T14:20:05;9.30;99.90
44775;DHT22;31340;51.402;0.016;2023-12-07T14:22:57;9.30;99.90
44775;DHT22;31340;51.402;0.016;2023-12-07T14:25:25;9.30;99.90
44775;DHT22;31340;51.402;0.016;2023-12-07T14:27:53;9.20;99.90
44775;DHT22;31340;51.402;0.016;2023-12-07T14:30:21;9.20;99.90
44775;DHT22;31340;51.402;0.016;2023-12-07T14:32:49;9.20;99.90
44775;DHT22;31340;51.402;0.016;2023-12-07T14:35:21;9.20;99.90
44775;DHT22;31340;51.402;0.016;2023-12-07T14:37:49;9.10;99.90
44775;DHT22;31340;51.402;0.016;2023-12-07T14:40:18;9.10;99.90
44775;DHT22;31340;51.402;0.016;2023-12-07T14:42:46;9.10;99.90
44775;DHT22;31340;51.402;0.016;2023-12-07T14:45:15;9.10;99.90
44775;DHT22;31340;51.402;0.016;2023-12-07T14:47:43;9.10;99.90
44775;DHT22;31340;51.402;0.016;2023-12-07T14:50:12;9.10;99.90
44775;DHT22;31340;51.402;0.016;2023-12-07T14:52:40;9.10;99.90
44775;DHT22;31340;51.402;0.016;2023-12-07T14:55:08;9.00;99.90
44775;DHT22;31340;51.402;0.016;2023-12-07T14:57:35;9.00;99.90
44775;DHT22;31340;51.402;0.016;2023-12-07T15:00:03;9.00;99.90
44775;DHT22;31340;51.402;0.016;2023-12-07T15:02:33;9.00;99.90
44775;DHT22;31340;51.402;0.016;2023-12-07T15:05:00;8.90;99.90
44775;DHT22;31340;51.402;0.016;2023-12-07T15:07:28;8.90;99.90
44775;DHT22;31340;51.402;0.016;2023-12-07T15:09:56;8.90;99.90
44775;DHT22;31340;51.402;0.016;2023-12-07T15:12:26;8.90;99.90
44775;DHT22;31340;51.402;0.016;2023-12-07T15:14:57;8.80;99.90
44775;DHT22;31340;51.402;0.016;2023-12-07T15:17:25;8.80;99.90
44775;DHT22;31340;51.402;0.016;2023-12-07T15:19:55;8.80;99.90
44775;DHT22;31340;51.402;0.016;2023-12-07T15:22:23;8.80;99.90
44775;DHT22;31340;51.402;0.016;2023-12-07T15:24:51;8.70;99.90
44775;DHT22;31340;51.402;0.016;2023-12-07T15:27:19;8.70;99.90
44775;DHT22;31340;51.402;0.016;2023-12-07T15:29:47;8.70;99.90
44775;DHT22;31340;51.402;0.016;2023-12-07T15:32:15;8.70;99.90
44775;DHT22;31340;51.402;0.016;2023-12-07T15:34:43;8.80;99.90
44775;DHT22;31340;51.402;0.016;2023-12-07T15:37:11;8.60;99.90
44775;DHT22;31340;51.402;0.016;2023-12-07T15:39:42;8.60;99.90
44775;DHT22;31340;51.402;0.016;2023-12-07T15:42:11;8.60;99.90
44775;DHT22;31340;51.402;0.016;2023-12-07T15:44:39;8.60;99.90
44775;DHT22;31340;51.402;0.016;2023-12-07T15:47:08;9.00;99.90
44775;DHT22;31340;51.402;0.016;2023-12-07T15:49:36;8.50;99.90
44775;DHT22;31340;51.402;0.016;2023-12-07T15:52:04;8.50;99.90
44775;DHT22;31340;51.402;0.016;2023-12-07T15:54:33;8.50;99.90
44775;DHT22;31340;51.402;0.016;2023-12-07T15:57:07;8.50;99.90
44775;DHT22;31340;51.402;0.016;2023-12-07T15:59:38;8.50;99.90
44775;DHT22;31340;51.402;0.016;2023-12-07T16:02:07;8.50;99.90
44775;DHT22;31340;51.402;0.016;2023-12-07T16:04:35;8.40;99.90
44775;DHT22;31340;51.402;0.016;2023-12-07T16:07:05;8.40;99.90